Terminal Aerodrome Forecast
Issued by NWS

Home | Current Version | Previous Version | Text Only | Print | Product List | Glossary On
Versions: 1 2 3 4 5 6 7 8 9 10 11 12 13 14 15
000
FTUS41 KAKQ 311140
TAFPHF
TAF
KPHF 311140Z 3112/0112 00000KT 5SM BR SCT006 BKN016
      TEMPO 3112/3113 SCT016
     FM311300 05004KT P6SM SKC
     FM311600 09005KT P6SM SKC
     FM312300 13006KT P6SM SCT070
     FM010400 20005KT P6SM SCT100=

USA.gov is the U.S. government's official web portal to all federal, state and local government web resources and services.